.
WxDataArchive / Data Records for 2010-07-06
2010-07-05 July 2010 2010-07-07

Data Records for Tuesday, 06 July 2010

Time	Temp	Chill	HIndex	Humid	Dewpt	 Wind 	HiWind	WindDir	Rain 	Barom 
-----	----	-----	------	-----	-----	------	------	-------	-----	----- 
00:00	74.2	74.2	74.2	74	65.4	0	0	---	0.00	29.997 
00:05	74.0	74.0	74.0	75	65.6	0	0	---	0.00	29.997 
00:10	73.9	73.9	73.9	76	65.8	0	0	---	0.00	29.997 
00:15	73.7	73.7	73.7	77	66.0	0	0	---	0.00	29.998 
00:20	73.3	73.3	73.3	77	65.6	0	0	---	0.00	29.998 
00:25	73.2	73.2	73.2	77	65.5	0	0	---	0.00	29.998 
00:30	73.0	73.0	73.0	78	65.7	0	0	---	0.00	29.999 
00:35	73.0	73.0	73.0	78	65.7	0	0	---	0.00	29.999 
00:40	72.8	72.8	72.8	79	65.9	0	0	---	0.00	29.999 
00:45	72.7	72.7	72.7	79	65.8	0	0	---	0.00	29.999 
00:50	72.5	72.5	72.5	79	65.6	0	0	---	0.00	29.999 
00:55	72.5	72.5	72.5	79	65.6	0	0	---	0.00	29.999 
01:00	72.3	72.3	72.3	79	65.4	0	0	---	0.00	29.999 
01:05	72.3	72.3	72.3	80	65.8	0	0	---	0.00	29.999 
01:10	72.1	72.1	72.1	80	65.6	0	0	---	0.00	29.999 
01:15	72.0	72.0	72.0	80	65.5	0	0	---	0.00	30.001 
01:20	72.0	72.0	72.0	80	65.5	0	0	---	0.00	30.001 
01:25	71.8	71.8	71.8	81	65.6	0	0	---	0.00	30.001 
01:30	71.8	71.8	71.8	81	65.6	0	0	---	0.00	30.001 
01:35	71.8	71.8	71.8	81	65.6	0	0	---	0.00	30.001 
01:40	71.8	71.8	71.8	81	65.6	0	0	---	0.00	30.001 
01:45	71.6	71.6	71.6	81	65.4	0	0	---	0.00	30.002 
01:50	71.6	71.6	71.6	81	65.4	0	0	---	0.00	30.002 
01:55	71.5	71.5	71.5	81	65.4	0	0	---	0.00	30.002 
02:00	71.5	71.5	71.5	81	65.4	0	0	---	0.00	30.001 
02:05	71.5	71.5	71.5	81	65.4	0	0	---	0.00	30.001 
02:10	71.3	71.3	71.3	82	65.5	0	0	---	0.00	30.001 
02:15	71.3	71.3	71.3	82	65.5	0	0	---	0.00	30.002 
02:20	71.1	71.1	71.1	82	65.3	0	0	---	0.00	30.002 
02:25	71.1	71.1	71.1	83	65.7	0	0	---	0.00	30.002 
02:30	71.1	71.1	71.1	82	65.3	0	0	---	0.00	30.001 
02:35	70.9	70.9	70.9	82	65.1	0	0	---	0.00	30.001 
02:40	70.9	70.9	70.9	82	65.1	0	0	---	0.00	30.001 
02:45	70.9	70.9	70.9	82	65.1	0	0	---	0.00	29.999 
02:50	70.8	70.8	70.8	82	65.0	0	0	---	0.00	29.999 
02:55	70.8	70.8	70.8	82	65.0	0	0	---	0.00	29.999 
03:00	70.8	70.8	70.8	82	65.0	0	0	---	0.00	29.999 
03:05	70.8	70.8	70.8	82	65.0	0	0	---	0.00	29.999 
03:10	70.8	70.8	70.8	82	65.0	0	0	---	0.00	29.999 
03:15	70.8	70.8	70.8	82	65.0	0	0	---	0.00	30.000 
03:20	70.8	70.8	70.8	82	65.0	0	0	---	0.00	30.000 
03:25	70.8	70.8	70.8	82	65.0	0	0	---	0.00	30.000 
03:30	70.8	70.8	70.8	82	65.0	0	0	---	0.00	29.999 
03:35	70.6	70.6	70.6	82	64.8	0	0	---	0.00	29.999 
03:40	70.4	70.4	70.4	82	64.6	0	0	---	0.00	29.999 
03:45	70.4	70.4	70.4	82	64.6	0	0	---	0.00	30.000 
03:50	70.3	70.3	70.3	82	64.5	0	0	---	0.00	30.000 
03:55	70.1	70.1	70.1	83	64.7	0	0	---	0.00	30.000 
04:00	70.1	70.1	70.1	83	64.7	0	0	---	0.00	30.001 
04:05	70.1	70.1	70.1	83	64.7	0	0	---	0.00	30.001 
04:10	70.1	70.1	70.1	83	64.7	0	0	---	0.00	30.001 
04:15	70.1	70.1	70.1	83	64.7	0	0	---	0.00	30.001 
04:20	70.1	70.1	70.1	83	64.7	0	0	---	0.00	30.001 
04:25	70.1	70.1	70.1	83	64.7	0	0	---	0.00	30.001 
04:30	69.9	69.9	69.9	83	64.5	0	0	---	0.00	30.002 
04:35	69.9	69.9	69.9	83	64.5	0	0	---	0.00	30.002 
04:40	69.8	69.8	69.8	84	64.7	0	0	---	0.00	30.002 
04:45	69.6	69.6	69.6	84	64.5	0	0	---	0.00	30.002 
04:50	69.6	69.6	69.6	84	64.5	0	0	---	0.00	30.002 
04:55	69.4	69.4	69.4	84	64.3	0	0	---	0.00	30.002 
05:00	69.3	69.3	69.3	85	64.6	0	0	---	0.00	30.005 
05:05	69.1	69.1	69.1	85	64.4	0	0	---	0.00	30.005 
05:10	68.8	68.8	68.8	85	64.1	0	0	---	0.00	30.005 
05:15	68.6	68.6	68.6	85	63.9	0	0	---	0.00	30.013 
05:20	68.4	68.4	68.4	86	64.0	0	0	---	0.00	30.013 
05:25	68.3	68.3	68.3	86	63.9	0	0	---	0.00	30.013 
05:30	68.1	68.1	68.1	87	64.1	0	0	---	0.00	30.013 
05:35	68.1	68.1	68.1	88	64.4	0	0	---	0.00	30.013 
05:40	68.3	68.3	68.3	88	64.6	0	0	---	0.00	30.013 
05:45	68.3	68.3	68.3	88	64.6	0	0	---	0.00	30.017 
05:50	68.3	68.3	68.3	88	64.6	0	0	---	0.00	30.017 
05:55	68.4	68.4	68.4	88	64.7	0	0	---	0.00	30.017 
06:00	68.6	68.6	68.6	88	64.9	0	0	---	0.00	30.018 
06:05	68.6	68.6	68.6	88	64.9	0	0	---	0.00	30.018 
06:10	68.6	68.6	68.6	88	64.9	0	0	---	0.00	30.018 
06:15	68.6	68.6	68.6	88	64.9	0	0	---	0.00	30.020 
06:20	68.4	68.4	68.4	88	64.7	0	0	---	0.00	30.020 
06:25	68.3	68.3	68.3	88	64.6	0	0	---	0.00	30.020 
06:30	68.1	68.1	68.1	88	64.4	0	0	---	0.00	30.028 
06:35	68.1	68.1	68.1	88	64.4	0	0	---	0.00	30.028 
06:40	67.9	67.9	67.9	88	64.2	0	0	---	0.00	30.028 
06:45	67.8	67.8	67.8	88	64.1	0	0	---	0.00	30.029 
06:50	67.8	67.8	67.8	89	64.4	0	0	---	0.00	30.029 
06:55	67.8	67.8	67.8	90	64.8	0	0	---	0.00	30.029 
07:00	67.9	67.9	67.9	90	64.9	0	0	---	0.00	30.035 
07:05	67.9	67.9	67.9	90	64.9	0	0	---	0.00	30.035 
07:10	68.1	68.1	68.1	90	65.0	0	0	---	0.00	30.035 
07:15	68.3	68.3	68.3	91	65.6	0	0	---	0.00	30.038 
07:20	68.4	68.4	68.4	91	65.7	0	0	---	0.00	30.038 
07:25	68.9	68.9	68.9	90	65.8	0	0	---	0.00	30.038 
07:30	69.4	69.4	69.4	89	66.0	0	0	---	0.00	30.039 
07:35	70.4	70.4	70.4	87	66.3	0	1	270	0.00	30.039 
07:40	71.3	71.3	71.3	85	66.5	0	1	270	0.00	30.039 
07:45	72.1	72.1	72.1	82	66.3	0	1	270	0.00	30.044 
07:50	73.2	73.2	73.2	80	66.6	0	0	---	0.00	30.044 
07:55	74.2	74.2	74.2	77	66.5	0	1	270	0.00	30.044 
08:00	75.1	75.1	76.4	74	66.2	0	1	270	0.00	30.047 
08:05	75.8	75.8	77.3	73	66.5	0	1	270	0.00	30.047 
08:10	76.5	76.5	78.1	72	66.8	0	1	270	0.00	30.047 
08:15	77.2	77.2	79.0	69	66.2	0	2	270	0.00	30.048 
08:20	77.9	77.9	79.9	69	66.9	0	1	270	0.00	30.048 
08:25	78.3	78.3	80.3	67	66.4	0	3	90	0.00	30.048 
08:30	78.5	78.5	80.5	67	66.6	0	1	90	0.00	30.047 
08:35	79.0	79.0	81.1	66	66.6	0	1	90	0.00	30.047 
08:40	79.2	79.2	81.4	66	66.8	0	1	90	0.00	30.047 
08:45	79.8	79.8	82.1	65	67.0	0	1	90	0.00	30.046 
08:50	80.1	80.1	82.3	63	66.3	0	2	90	0.00	30.046 
08:55	80.5	80.5	82.7	62	66.3	0	1	90	0.00	30.046 
09:00	81.1	81.1	83.2	60	65.9	0	1	90	0.00	30.046 
09:05	81.4	81.4	83.6	60	66.2	0	2	90	0.00	30.046 
09:10	81.6	81.6	83.7	59	65.9	0	2	90	0.00	30.046 
09:15	82.0	82.0	84.1	58	65.7	0	2	202	0.00	30.053 
09:20	82.4	82.4	84.4	57	65.6	0	1	225	0.00	30.053 
09:25	82.6	82.6	84.9	58	66.3	0	2	202	0.00	30.053 
09:30	82.8	82.8	84.6	55	65.0	0	3	292	0.00	30.054 
09:35	82.8	82.8	85.2	58	66.5	0	2	270	0.00	30.054 
09:40	82.8	82.8	84.6	55	65.0	1	4	248	0.00	30.054 
09:45	82.6	82.6	84.1	54	64.2	1	4	248	0.00	30.052 
09:50	82.6	82.6	84.3	55	64.8	1	3	248	0.00	30.052 
09:55	83.0	83.0	84.7	54	64.6	0	2	270	0.00	30.052 
10:00	83.4	83.4	85.4	55	65.5	0	2	270	0.00	30.050 
10:05	83.8	83.8	85.5	53	64.8	1	2	270	0.00	30.050 
10:10	84.0	84.0	85.6	52	64.4	1	3	292	0.00	30.050 
10:15	84.0	84.0	85.6	52	64.4	1	3	292	0.00	30.053 
10:20	84.7	84.7	86.8	53	65.6	0	1	270	0.00	30.053 
10:25	84.9	84.9	86.3	50	64.2	1	3	292	0.00	30.053 
10:30	85.3	85.3	86.4	48	63.4	1	3	292	0.00	30.048 
10:35	85.3	85.3	85.9	46	62.1	2	4	270	0.00	30.048 
10:40	85.3	85.3	86.4	48	63.4	2	4	292	0.00	30.048 
10:45	85.3	85.3	86.4	48	63.4	1	3	270	0.00	30.050 
10:50	85.5	85.5	86.4	47	62.9	1	5	315	0.00	30.050 
10:55	85.7	85.7	86.7	47	63.1	2	4	270	0.00	30.050 
11:00	86.1	86.1	87.0	46	62.9	1	5	270	0.00	30.049 
11:05	86.1	86.1	87.0	46	62.9	2	6	270	0.00	30.049 
11:10	86.1	86.1	86.7	45	62.2	2	6	270	0.00	30.049 
11:15	86.1	86.1	86.7	45	62.2	2	7	248	0.00	30.050 
11:20	86.3	86.3	87.0	45	62.4	2	5	270	0.00	30.050 
11:25	86.7	86.7	87.2	44	62.1	1	4	292	0.00	30.050 
11:30	87.0	87.0	87.6	44	62.4	2	5	248	0.00	30.049 
11:35	87.0	87.0	87.1	42	61.1	3	5	270	0.00	30.049 
11:40	87.2	87.2	87.9	44	62.6	2	5	270	0.00	30.049 
11:45	87.4	87.4	87.9	43	62.1	2	5	270	0.00	30.049 
11:50	87.6	87.6	88.2	43	62.3	2	4	248	0.00	30.049 
11:55	87.8	87.8	88.2	42	61.8	2	5	270	0.00	30.049 
12:00	87.8	87.8	88.5	43	62.5	1	4	248	0.00	30.047 
12:05	88.0	88.0	88.5	42	62.0	2	5	270	0.00	30.047 
12:10	88.0	88.0	88.5	42	62.0	1	4	248	0.00	30.047 
12:15	88.2	88.2	88.7	42	62.2	2	9	270	0.00	30.047 
12:20	88.6	88.6	89.0	41	61.8	2	7	270	0.00	30.047 
12:25	88.8	88.8	89.6	42	62.7	2	6	292	0.00	30.047 
12:30	88.8	88.8	89.6	42	62.7	2	6	270	0.00	30.048 
12:35	89.0	89.0	90.5	44	64.2	1	4	45	0.00	30.048 
12:40	89.3	89.3	90.3	42	63.2	2	5	270	0.00	30.048 
12:45	89.7	89.7	90.9	42	63.5	1	4	270	0.00	30.042 
12:50	89.5	89.5	91.3	44	64.7	1	3	270	0.00	30.042 
12:55	89.3	89.3	90.6	43	63.8	2	4	292	0.00	30.042 
13:00	89.5	89.5	91.0	43	64.0	2	4	292	0.00	30.038 
13:05	89.9	89.9	91.6	43	64.4	1	4	292	0.00	30.038 
13:10	89.9	89.9	90.9	41	63.0	1	4	248	0.00	30.038 
13:15	90.1	90.1	91.9	43	64.5	0	2	248	0.00	30.034 
13:20	89.9	89.9	91.6	43	64.4	1	3	248	0.00	30.034 
13:25	89.9	89.9	91.6	43	64.4	1	4	270	0.00	30.034 
13:30	90.5	90.5	92.9	44	65.6	1	5	248	0.00	30.032 
13:35	90.7	90.7	92.1	41	63.7	1	3	248	0.00	30.032 
13:40	90.7	90.7	92.1	41	63.7	2	5	248	0.00	30.032 
13:45	90.3	90.3	91.1	40	62.7	2	5	315	0.00	30.031 
13:50	90.5	90.5	92.2	42	64.2	1	4	270	0.00	30.031 
13:55	90.5	90.5	91.4	40	62.8	1	4	270	0.00	30.031 
14:00	90.5	90.5	92.2	42	64.2	2	4	270	0.00	30.030 
14:05	90.5	90.5	91.4	40	62.8	1	3	270	0.00	30.030 
14:10	90.7	90.7	93.3	44	65.7	1	6	270	0.00	30.030 
14:15	91.2	91.2	91.8	38	62.0	1	4	248	0.00	30.028 
14:20	91.6	91.6	93.5	41	64.5	1	3	270	0.00	30.028 
14:25	91.8	91.8	93.9	41	64.7	1	7	90	0.00	30.028 
14:30	92.1	92.1	93.5	39	63.5	1	6	270	0.00	30.023 
14:35	91.8	91.8	93.1	39	63.3	1	4	270	0.00	30.023 
14:40	91.6	91.6	92.0	37	61.6	1	3	270	0.00	30.023 
14:45	91.4	91.4	92.8	40	63.6	2	4	270	0.00	30.016 
14:50	91.4	91.4	92.1	38	62.2	2	5	270	0.00	30.016 
14:55	91.8	91.8	93.4	40	64.0	1	3	270	0.00	30.016 
15:00	92.1	92.1	92.8	37	62.0	2	4	90	0.00	30.017 
15:05	92.1	92.1	93.1	38	62.8	1	4	292	0.00	30.017 
15:10	92.1	92.1	92.8	37	62.0	1	4	90	0.00	30.017 
15:15	92.1	92.1	93.9	40	64.3	1	4	90	0.00	30.016 
15:20	92.1	92.1	93.1	38	62.8	2	6	90	0.00	30.016 
15:25	92.1	92.1	92.8	37	62.0	1	3	292	0.00	30.016 
15:30	92.3	92.3	92.3	35	60.6	1	4	270	0.00	30.018 
15:35	92.5	92.5	92.6	35	60.8	1	3	248	0.00	30.018 
15:40	92.5	92.5	93.0	36	61.6	1	3	22	0.00	30.018 
15:45	92.7	92.7	94.5	39	64.1	1	3	22	0.00	30.019 
15:50	92.7	92.7	93.3	36	61.8	1	4	292	0.00	30.019 
15:55	92.5	92.5	92.6	35	60.8	1	4	248	0.00	30.019 
16:00	92.5	92.5	93.4	37	62.4	1	3	270	0.00	30.020 
16:05	92.9	92.9	94.8	39	64.2	0	2	270	0.00	30.020 
16:10	93.2	93.2	93.7	35	61.4	1	4	248	0.00	30.020 
16:15	92.9	92.9	93.2	35	61.2	1	5	248	0.00	30.020 
16:20	92.9	92.9	92.5	33	59.5	1	3	270	0.00	30.020 
16:25	92.9	92.9	93.2	35	61.2	1	3	270	0.00	30.020 
16:30	92.7	92.7	92.5	34	60.2	1	3	270	0.00	30.018 
16:35	92.5	92.5	93.0	36	61.6	1	3	270	0.00	30.018 
16:40	92.5	92.5	93.4	37	62.4	1	4	270	0.00	30.018 
16:45	92.3	92.3	93.1	37	62.2	0	2	270	0.00	30.018 
16:50	92.1	92.1	92.8	37	62.0	2	4	270	0.00	30.018 
16:55	92.1	92.1	93.5	39	63.5	1	3	45	0.00	30.018 
17:00	92.5	92.5	93.0	36	61.6	1	5	45	0.00	30.016 
17:05	92.7	92.7	94.1	38	63.3	1	5	248	0.00	30.016 
17:10	92.7	92.7	93.7	37	62.6	1	4	270	0.00	30.016 
17:15	92.1	92.1	92.8	37	62.0	1	4	248	0.00	30.017 
17:20	91.6	91.6	92.0	37	61.6	0	3	248	0.00	30.017 
17:25	91.4	91.4	92.1	38	62.2	0	2	248	0.00	30.017 
17:30	91.4	91.4	92.1	38	62.2	0	3	90	0.00	30.013 
17:35	91.4	91.4	92.1	38	62.2	1	3	315	0.00	30.013 
17:40	91.2	91.2	91.4	37	61.2	1	2	248	0.00	30.013 
17:45	91.2	91.2	91.8	38	62.0	0	2	292	0.00	30.011 
17:50	91.4	91.4	92.1	38	62.2	1	3	0	0.00	30.011 
17:55	91.6	91.6	91.7	36	60.8	1	3	292	0.00	30.011 
18:00	91.4	91.4	91.7	37	61.4	1	4	270	0.00	30.011 
18:05	90.5	90.5	91.1	39	62.1	1	4	248	0.00	30.011 
18:10	90.1	90.1	90.8	40	62.5	1	3	270	0.00	30.011 
18:15	89.5	89.5	90.0	40	61.9	0	1	270	0.00	30.013 
18:20	89.0	89.0	89.6	41	62.2	0	1	270	0.00	30.013 
18:25	89.0	89.0	89.9	42	62.9	0	1	270	0.00	30.013 
18:30	89.0	89.0	89.9	42	62.9	0	2	270	0.00	30.013 
18:35	89.3	89.3	90.3	42	63.2	0	2	315	0.00	30.013 
18:40	89.5	89.5	90.6	42	63.3	0	3	45	0.00	30.013 
18:45	89.5	89.5	90.3	41	62.6	1	3	45	0.00	30.009 
18:50	89.3	89.3	90.0	41	62.5	0	4	248	0.00	30.009 
18:55	89.3	89.3	90.6	43	63.8	0	1	248	0.00	30.009 
19:00	89.0	89.0	89.6	41	62.2	1	3	270	0.00	30.012 
19:05	88.8	88.8	89.6	42	62.7	0	2	270	0.00	30.012 
19:10	88.6	88.6	89.6	43	63.2	0	3	270	0.00	30.012 
19:15	88.6	88.6	89.3	42	62.5	0	1	112	0.00	30.007 
19:20	88.6	88.6	89.6	43	63.2	0	1	112	0.00	30.007 
19:25	88.6	88.6	89.6	43	63.2	0	2	112	0.00	30.007 
19:30	88.4	88.4	89.0	42	62.3	0	2	248	0.00	30.005 
19:35	88.2	88.2	89.0	43	62.8	0	2	248	0.00	30.005 
19:40	88.0	88.0	88.7	43	62.7	0	2	248	0.00	30.005 
19:45	88.0	88.0	88.7	43	62.7	0	1	248	0.00	30.006 
19:50	87.8	87.8	88.5	43	62.5	0	1	248	0.00	30.006 
19:55	87.8	87.8	88.8	44	63.1	0	2	248	0.00	30.006 
20:00	87.8	87.8	88.5	43	62.5	0	2	248	0.00	30.009 
20:05	87.6	87.6	88.5	44	63.0	0	1	248	0.00	30.009 
20:10	87.4	87.4	88.2	44	62.8	0	1	248	0.00	30.009 
20:15	87.2	87.2	87.9	44	62.6	0	1	248	0.00	30.008 
20:20	87.0	87.0	87.6	44	62.4	0	1	248	0.00	30.008 
20:25	86.7	86.7	87.5	45	62.8	0	1	248	0.00	30.008 
20:30	86.5	86.5	87.5	46	63.2	0	0	---	0.00	30.011 
20:35	86.1	86.1	87.2	47	63.5	0	1	248	0.00	30.011 
20:40	85.7	85.7	86.7	47	63.1	0	0	---	0.00	30.011 
20:45	85.5	85.5	86.6	48	63.5	0	0	---	0.00	30.013 
20:50	85.3	85.3	86.4	48	63.4	0	2	90	0.00	30.013 
20:55	85.1	85.1	86.1	48	63.2	0	1	90	0.00	30.013 
21:00	84.7	84.7	85.8	49	63.4	0	1	90	0.00	30.014 
21:05	84.5	84.5	85.6	49	63.2	0	0	---	0.00	30.014 
21:10	84.1	84.1	85.3	50	63.4	0	0	---	0.00	30.014 
21:15	83.8	83.8	84.9	50	63.1	0	0	---	0.00	30.015 
21:20	83.4	83.4	84.6	51	63.3	0	0	---	0.00	30.015 
21:25	83.0	83.0	84.3	52	63.5	0	0	---	0.00	30.015 
21:30	82.6	82.6	84.0	53	63.7	0	0	---	0.00	30.019 
21:35	82.2	82.2	83.6	54	63.9	0	0	---	0.00	30.019 
21:40	81.8	81.8	83.2	54	63.5	0	0	---	0.00	30.019 
21:45	81.4	81.4	82.7	54	63.1	0	0	---	0.00	30.028 
21:50	81.1	81.1	82.5	55	63.4	0	0	---	0.00	30.028 
21:55	80.9	80.9	82.4	56	63.7	0	0	---	0.00	30.028 
22:00	80.5	80.5	81.9	56	63.3	0	0	---	0.00	30.035 
22:05	80.3	80.3	81.8	57	63.7	0	0	---	0.00	30.035 
22:10	80.1	80.1	81.6	57	63.5	0	0	---	0.00	30.035 
22:15	79.9	79.9	81.5	58	63.8	0	0	---	0.00	30.039 
22:20	79.6	79.6	81.2	58	63.5	0	0	---	0.00	30.039 
22:25	79.6	79.6	81.3	59	64.0	0	0	---	0.00	30.039 
22:30	79.2	79.2	80.8	59	63.6	0	0	---	0.00	30.045 
22:35	79.0	79.0	80.7	60	63.9	0	0	---	0.00	30.045 
22:40	78.8	78.8	80.5	60	63.7	0	0	---	0.00	30.045 
22:45	78.6	78.6	80.3	60	63.5	0	0	---	0.00	30.046 
22:50	78.5	78.5	80.2	61	63.9	0	0	---	0.00	30.046 
22:55	78.5	78.5	80.3	62	64.4	0	0	---	0.00	30.046 
23:00	78.3	78.3	80.1	62	64.2	0	0	---	0.00	30.049 
23:05	78.1	78.1	79.9	62	64.0	0	0	---	0.00	30.049 
23:10	77.9	77.9	79.7	63	64.3	0	0	---	0.00	30.049 
23:15	77.7	77.7	79.5	63	64.1	0	0	---	0.00	30.049 
23:20	77.6	77.6	79.4	64	64.4	0	0	---	0.00	30.049 
23:25	77.4	77.4	79.2	64	64.2	0	0	---	0.00	30.049 
23:30	77.2	77.2	79.0	64	64.1	0	0	---	0.00	30.056 
23:35	77.0	77.0	78.8	65	64.3	0	0	---	0.00	30.056 
23:40	76.8	76.8	78.6	66	64.6	0	0	---	0.00	30.056 
23:45	76.7	76.7	78.5	66	64.5	0	0	---	0.00	30.058 
23:50	76.5	76.5	78.3	66	64.3	0	0	---	0.00	30.058 
23:55	76.3	76.3	78.1	67	64.5	0	0	---	0.00	30.058 

CoCoRaHS
IN-AL-39
A2 Web Hosting
Creative Commons License
GoDaddy
search engine by freefind advanced

loaded 2018-11-17 14:01:49 • last modified 2010-11-18 10:43:29
Privacy PolicyDisclaimer
• wx.awcolley.com is powered by PmWiki v.2002016 •
• all content (unless otherwise noted) © 2018 A W Colley